Terminal Aerodrome Forecast
Issued by NWS

Home | Current Version | Previous Version | Text Only | Print | Product List | Glossary On
Versions: 1 2 3 4 5 6 7 8 9 10 11 12 13 14 15 16 17 18
000
FTUS46 KLOX 171138
TAFPMD
TAF
KPMD 171138Z 1712/1812 VRB03KT P6SM SKC
     FM171500 06010KT P6SM SKC
     FM171800 06018G28KT P6SM SKC
     FM172300 06010KT P6SM SKC
     FM180300 VRB03KT P6SM SKC=

USA.gov is the U.S. government's official web portal to all federal, state and local government web resources and services.